Starks, Maine
Current Conditions -  °F | °C
As of 11:15 PM on Friday 31 Oct 2014 (Local Time) from KWVL Reporting Station
Overcast Overcast  
Wind Chill: 35°   Ceiling: 3800
Heat Index: 41°   Visibility: 10mi
Dew Point: 30°   Wind: 9mph
Humidity: 65%   Direction: 360°N
Pressure: 30.02"   Gusts: NA
Location:  44.7784°N, 69.9606°W
Report Text: KWVL 010315Z 36008KT 10SM BKN038 OVC050 05/M01 A3002 RMK AO1
Loading
Personal Weather Stations






























Interactive Weather Map
Tropical Storm Tracking
New forecast layout! Learn more

10-Day Weather Forecast

Advertisements
Track Severe Weather on mobile